createdAt,value
2022-10-19T00:00:14.609Z,100.00
2022-10-19T00:02:41.937Z,100.00
2022-10-19T00:05:09.602Z,100.00
2022-10-19T00:07:37.058Z,100.00
2022-10-19T00:10:04.753Z,100.00
2022-10-19T00:12:32.248Z,100.00
2022-10-19T00:14:59.675Z,100.00
2022-10-19T00:17:28.376Z,100.00
2022-10-19T00:19:55.721Z,99.93
2022-10-19T00:22:23.092Z,96.92
2022-10-19T00:24:50.469Z,96.40
2022-10-19T00:27:17.797Z,95.38
2022-10-19T00:29:45.142Z,95.59
2022-10-19T00:32:12.476Z,96.73
2022-10-19T00:34:41.269Z,100.00
2022-10-19T00:37:08.612Z,98.39
2022-10-19T00:39:37.520Z,96.21
2022-10-19T00:42:04.883Z,96.47
2022-10-19T00:44:50.808Z,99.35
2022-10-19T00:47:19.851Z,96.00
2022-10-19T00:49:48.517Z,97.40
2022-10-19T00:52:17.424Z,99.57
2022-10-19T00:54:45.496Z,98.15
2022-10-19T00:57:13.427Z,96.24
2022-10-19T00:59:42.387Z,96.61
2022-10-19T01:02:09.856Z,100.00
2022-10-19T01:04:38.715Z,100.00
2022-10-19T01:07:08.410Z,100.00
2022-10-19T01:09:35.861Z,100.00
2022-10-19T01:12:07.875Z,97.72
2022-10-19T01:14:39.232Z,97.01
2022-10-19T01:17:12.027Z,96.40
2022-10-19T01:19:48.435Z,95.88
2022-10-19T01:22:26.526Z,96.30
2022-10-19T01:24:58.382Z,100.00
2022-10-19T01:27:36.121Z,100.00
2022-10-19T01:30:10.299Z,100.00
2022-10-19T01:32:55.629Z,100.00
2022-10-19T01:35:34.743Z,100.00
2022-10-19T01:38:06.837Z,100.00
2022-10-19T01:40:40.895Z,100.00
2022-10-19T01:43:12.872Z,100.00
2022-10-19T01:45:44.395Z,100.00
2022-10-19T01:48:13.642Z,98.61
2022-10-19T01:50:44.439Z,100.00
2022-10-19T01:53:12.767Z,99.92
2022-10-19T01:55:43.184Z,98.11
2022-10-19T01:58:14.883Z,97.40
2022-10-19T02:00:46.016Z,96.83
2022-10-19T02:03:13.835Z,98.22
2022-10-19T02:05:41.554Z,100.00
2022-10-19T02:08:11.860Z,99.48
2022-10-19T02:10:40.671Z,97.73
2022-10-19T02:13:08.719Z,97.46
2022-10-19T02:15:37.493Z,96.97
2022-10-19T02:18:07.091Z,97.14
2022-10-19T02:20:36.303Z,96.88
2022-10-19T02:23:04.619Z,97.24
2022-10-19T02:25:32.276Z,98.31
2022-10-19T02:27:59.698Z,99.88
2022-10-19T02:30:27.199Z,100.00
2022-10-19T02:32:54.534Z,98.83
2022-10-19T02:35:23.432Z,98.07
2022-10-19T02:37:50.817Z,97.34
2022-10-19T02:40:18.320Z,97.75
2022-10-19T02:42:49.116Z,97.90
2022-10-19T02:45:20.430Z,99.26
2022-10-19T02:47:50.407Z,99.26
2022-10-19T02:50:18.435Z,99.15
2022-10-19T02:52:47.115Z,97.28
2022-10-19T02:55:14.532Z,96.82
2022-10-19T02:57:41.923Z,96.56
2022-10-19T03:00:10.066Z,96.83
2022-10-19T03:02:37.511Z,97.03
2022-10-19T03:05:05.131Z,96.89
2022-10-19T03:07:32.952Z,96.62
2022-10-19T03:10:01.978Z,96.07
2022-10-19T03:12:29.375Z,96.58
2022-10-19T03:14:56.699Z,96.51
2022-10-19T03:17:24.035Z,96.28
2022-10-19T03:19:51.393Z,95.90
2022-10-19T03:22:18.788Z,96.03
2022-10-19T03:24:46.131Z,97.89
2022-10-19T03:27:14.814Z,98.99
2022-10-19T03:29:42.156Z,97.04
2022-10-19T03:32:09.471Z,96.13
2022-10-19T03:34:39.771Z,96.52
2022-10-19T03:37:08.515Z,96.79
2022-10-19T03:39:36.144Z,96.68
2022-10-19T03:42:03.514Z,96.52
2022-10-19T03:44:32.852Z,96.60
2022-10-19T03:47:00.204Z,96.68
2022-10-19T03:49:27.531Z,99.56
2022-10-19T03:51:54.907Z,98.26
2022-10-19T03:54:25.022Z,96.53
2022-10-19T03:56:54.739Z,96.42
2022-10-19T03:59:22.944Z,96.56
2022-10-19T04:01:51.616Z,96.64
2022-10-19T04:04:19.908Z,97.07
2022-10-19T04:06:48.207Z,97.46
2022-10-19T04:09:17.170Z,96.70
2022-10-19T04:11:44.567Z,96.64
2022-10-19T04:14:18.894Z,96.47
2022-10-19T04:16:55.731Z,96.28
2022-10-19T04:19:23.196Z,96.13
2022-10-19T04:21:50.815Z,100.00
2022-10-19T04:24:19.179Z,99.48
2022-10-19T04:26:47.522Z,100.00
2022-10-19T04:29:15.203Z,99.66
2022-10-19T04:31:42.854Z,97.48
2022-10-19T04:34:11.895Z,97.37
2022-10-19T04:36:39.524Z,97.56
2022-10-19T04:39:07.850Z,100.00
2022-10-19T04:41:35.531Z,100.00
2022-10-19T04:44:03.947Z,100.00
2022-10-19T04:46:31.636Z,98.95
2022-10-19T04:48:59.799Z,97.71
2022-10-19T04:51:28.510Z,98.74
2022-10-19T04:53:59.525Z,99.21
2022-10-19T04:56:27.994Z,98.61
2022-10-19T04:58:56.136Z,100.00
2022-10-19T05:01:23.741Z,99.87
2022-10-19T05:03:54.166Z,99.88
2022-10-19T05:06:21.551Z,100.00
2022-10-19T05:08:50.422Z,100.00
2022-10-19T05:11:18.315Z,100.00
2022-10-19T05:13:46.054Z,98.38
2022-10-19T05:16:14.859Z,100.00
2022-10-19T05:18:42.237Z,99.22
2022-10-19T05:21:10.591Z,100.00
2022-10-19T05:23:38.601Z,97.95
2022-10-19T05:26:08.108Z,100.00
2022-10-19T05:28:35.968Z,100.00
2022-10-19T05:31:08.296Z,100.00
2022-10-19T05:33:38.838Z,100.00
2022-10-19T05:36:13.691Z,100.00
2022-10-19T05:38:41.020Z,100.00
2022-10-19T05:41:09.727Z,100.00
2022-10-19T05:43:37.481Z,100.00
2022-10-19T05:46:05.819Z,100.00
2022-10-19T05:48:34.006Z,100.00
2022-10-19T05:51:02.018Z,100.00
2022-10-19T05:53:29.408Z,100.00
2022-10-19T05:55:56.767Z,100.00
2022-10-19T05:58:25.821Z,100.00
2022-10-19T06:00:53.628Z,100.00
2022-10-19T06:03:21.936Z,100.00
2022-10-19T06:05:49.673Z,100.00
2022-10-19T06:08:17.270Z,100.00
2022-10-19T06:10:44.643Z,100.00
2022-10-19T06:13:12.427Z,100.00
2022-10-19T06:15:41.129Z,100.00
2022-10-19T06:18:08.490Z,100.00
2022-10-19T06:20:36.267Z,100.00
2022-10-19T06:23:03.662Z,100.00
2022-10-19T06:25:31.403Z,100.00
2022-10-19T06:27:58.995Z,100.00
2022-10-19T06:30:26.714Z,100.00
2022-10-19T06:32:55.586Z,100.00
2022-10-19T06:35:22.954Z,100.00
2022-10-19T06:37:50.313Z,100.00
2022-10-19T06:40:17.783Z,100.00
2022-10-19T06:42:45.158Z,99.60
2022-10-19T06:45:12.509Z,98.75
2022-10-19T06:47:42.517Z,100.00
2022-10-19T06:50:11.588Z,100.00
2022-10-19T06:52:40.632Z,100.00
2022-10-19T06:55:08.485Z,98.89
2022-10-19T06:57:36.212Z,98.24
2022-10-19T07:00:04.567Z,98.54
2022-10-19T07:02:31.937Z,97.14
2022-10-19T07:05:03.282Z,97.26
2022-10-19T07:07:35.256Z,97.74
2022-10-19T07:10:02.742Z,99.32
2022-10-19T07:12:30.072Z,98.03
2022-10-19T07:14:58.050Z,97.75
2022-10-19T07:17:25.396Z,97.93
2022-10-19T07:19:52.739Z,97.92
2022-10-19T07:22:25.658Z,97.14
2022-10-19T07:24:56.588Z,97.08
2022-10-19T07:27:23.971Z,100.00
2022-10-19T07:29:51.381Z,100.00
2022-10-19T07:32:18.694Z,100.00
2022-10-19T07:34:46.028Z,100.00
2022-10-19T07:37:13.374Z,100.00
2022-10-19T07:39:40.705Z,100.00
2022-10-19T07:42:09.397Z,100.00
2022-10-19T07:44:36.788Z,100.00
2022-10-19T07:47:04.713Z,100.00
2022-10-19T07:49:32.047Z,100.00
2022-10-19T07:51:59.397Z,100.00
2022-10-19T07:54:27.351Z,100.00
2022-10-19T07:56:54.715Z,100.00
2022-10-19T07:59:23.383Z,100.00
2022-10-19T08:01:50.862Z,100.00
2022-10-19T08:07:05.941Z,100.00
2022-10-19T08:09:52.130Z,100.00
2022-10-19T08:12:20.682Z,100.00
2022-10-19T08:14:49.329Z,100.00
2022-10-19T08:17:17.504Z,100.00
2022-10-19T08:19:44.998Z,100.00
2022-10-19T08:22:12.433Z,100.00
2022-10-19T08:24:39.805Z,100.00
2022-10-19T08:27:07.246Z,100.00
2022-10-19T08:29:34.562Z,100.00
2022-10-19T08:32:03.229Z,100.00
2022-10-19T08:34:30.594Z,100.00
2022-10-19T08:36:57.959Z,100.00
2022-10-19T08:39:25.311Z,100.00
2022-10-19T08:42:00.376Z,100.00
2022-10-19T08:44:46.867Z,100.00
2022-10-19T08:47:23.272Z,100.00
2022-10-19T08:49:51.066Z,100.00
2022-10-19T08:52:20.110Z,100.00
2022-10-19T08:54:50.898Z,100.00
2022-10-19T08:57:24.431Z,100.00
2022-10-19T08:59:55.853Z,100.00
2022-10-19T09:02:34.267Z,100.00
2022-10-19T09:05:04.653Z,100.00
2022-10-19T09:07:34.324Z,100.00
2022-10-19T09:10:03.488Z,100.00
2022-10-19T09:12:38.680Z,100.00
2022-10-19T09:15:07.976Z,100.00
2022-10-19T09:17:36.662Z,100.00
2022-10-19T09:20:14.718Z,100.00
2022-10-19T09:22:44.390Z,100.00
2022-10-19T09:25:15.206Z,100.00
2022-10-19T09:27:44.664Z,100.00
2022-10-19T09:30:16.743Z,100.00
2022-10-19T09:32:45.434Z,100.00
2022-10-19T09:35:20.544Z,100.00
2022-10-19T09:37:49.394Z,100.00
2022-10-19T09:40:18.225Z,100.00
2022-10-19T09:42:45.638Z,100.00
2022-10-19T09:45:15.564Z,100.00
2022-10-19T09:47:43.691Z,100.00
2022-10-19T09:50:19.996Z,100.00
2022-10-19T09:52:48.375Z,100.00
2022-10-19T09:55:23.679Z,100.00
2022-10-19T09:57:51.969Z,100.00
2022-10-19T10:00:20.095Z,100.00
2022-10-19T10:02:51.009Z,100.00
2022-10-19T10:05:20.308Z,100.00
2022-10-19T10:07:48.211Z,100.00
2022-10-19T10:10:21.322Z,100.00
2022-10-19T10:12:48.901Z,100.00
2022-10-19T10:15:18.301Z,100.00
2022-10-19T10:17:47.269Z,100.00
2022-10-19T10:20:29.376Z,100.00
2022-10-19T10:22:58.715Z,100.00
2022-10-19T10:25:30.877Z,100.00
2022-10-19T10:28:00.221Z,100.00
2022-10-19T10:30:30.429Z,100.00
2022-10-19T10:33:04.674Z,100.00
2022-10-19T10:35:48.995Z,100.00
2022-10-19T10:38:18.994Z,100.00
2022-10-19T10:40:51.791Z,100.00
2022-10-19T10:43:21.425Z,100.00
2022-10-19T10:45:51.241Z,100.00
2022-10-19T10:48:23.906Z,100.00
2022-10-19T10:50:52.980Z,100.00
2022-10-19T10:53:32.575Z,100.00
2022-10-19T10:56:00.037Z,100.00
2022-10-19T10:58:35.107Z,100.00
2022-10-19T11:01:07.653Z,100.00
2022-10-19T11:03:38.433Z,100.00
2022-10-19T11:06:09.381Z,100.00
2022-10-19T11:08:49.439Z,100.00
2022-10-19T11:11:20.068Z,100.00
2022-10-19T11:13:50.243Z,100.00
2022-10-19T11:16:18.693Z,100.00
2022-10-19T11:18:48.564Z,100.00
2022-10-19T11:21:21.132Z,100.00
2022-10-19T11:23:54.920Z,100.00
2022-10-19T11:26:36.837Z,100.00
2022-10-19T11:29:11.203Z,100.00
2022-10-19T11:31:42.795Z,100.00
2022-10-19T11:34:16.404Z,100.00
2022-10-19T11:36:49.742Z,100.00
2022-10-19T11:39:24.039Z,100.00
2022-10-19T11:41:59.160Z,100.00
2022-10-19T11:44:31.558Z,100.00
2022-10-19T11:47:03.570Z,100.00
2022-10-19T11:49:38.314Z,100.00
2022-10-19T11:52:12.110Z,100.00
2022-10-19T11:54:46.048Z,100.00
2022-10-19T11:57:16.098Z,100.00
2022-10-19T12:00:04.072Z,100.00
2022-10-19T12:02:51.691Z,100.00
2022-10-19T12:05:20.539Z,100.00
2022-10-19T12:07:57.635Z,100.00
2022-10-19T12:10:30.291Z,100.00
2022-10-19T12:12:59.396Z,100.00
2022-10-19T12:15:29.404Z,100.00
2022-10-19T12:18:00.143Z,100.00
2022-10-19T12:20:30.191Z,100.00
2022-10-19T12:22:59.760Z,100.00
2022-10-19T12:25:27.385Z,100.00
2022-10-19T12:27:55.152Z,99.26
2022-10-19T12:30:23.188Z,98.78
2022-10-19T12:33:00.115Z,98.86
2022-10-19T12:35:33.497Z,97.69
2022-10-19T12:38:06.092Z,98.67
2022-10-19T12:40:35.452Z,97.57
2022-10-19T12:43:09.185Z,99.01
2022-10-19T12:45:38.330Z,98.23
2022-10-19T12:48:22.556Z,96.80
2022-10-19T12:51:01.622Z,96.04
2022-10-19T12:53:31.828Z,95.29
2022-10-19T12:56:00.622Z,94.85
2022-10-19T12:58:31.495Z,94.72
2022-10-19T13:01:00.028Z,94.24
2022-10-19T13:03:30.928Z,93.40
2022-10-19T13:05:59.252Z,91.04
2022-10-19T13:08:29.381Z,92.45
2022-10-19T13:11:10.051Z,91.36
2022-10-19T13:13:52.298Z,89.26
2022-10-19T13:16:40.692Z,91.26
2022-10-19T13:19:21.543Z,91.49
2022-10-19T13:21:53.501Z,88.72
2022-10-19T13:24:32.033Z,90.42
2022-10-19T13:27:18.251Z,91.01
2022-10-19T13:29:46.951Z,89.61
2022-10-19T13:32:35.370Z,88.56
2022-10-19T13:35:33.282Z,87.99
2022-10-19T13:38:21.636Z,89.00
2022-10-19T13:41:01.252Z,90.83
2022-10-19T13:43:30.600Z,90.64
2022-10-19T13:46:02.054Z,90.59
2022-10-19T13:48:36.461Z,90.64
2022-10-19T13:51:09.049Z,90.25
2022-10-19T13:53:41.937Z,89.77
2022-10-19T13:56:19.422Z,90.05
2022-10-19T13:59:10.533Z,85.56
2022-10-19T14:01:49.243Z,87.13
2022-10-19T14:04:21.327Z,86.62
2022-10-19T14:06:53.000Z,85.78
2022-10-19T14:09:26.916Z,87.08
2022-10-19T14:11:55.210Z,85.87
2022-10-19T14:14:23.434Z,87.14
2022-10-19T14:16:59.652Z,85.78
2022-10-19T14:19:31.250Z,84.93
2022-10-19T14:22:00.425Z,85.55
2022-10-19T14:24:29.222Z,84.38
2022-10-19T14:26:56.816Z,85.92
2022-10-19T14:29:24.226Z,86.63
2022-10-19T14:31:52.946Z,86.78
2022-10-19T14:34:21.842Z,86.13
2022-10-19T14:36:50.121Z,86.84
2022-10-19T14:39:25.118Z,87.26
2022-10-19T14:41:54.149Z,86.35
2022-10-19T14:44:37.259Z,85.01
2022-10-19T14:47:10.971Z,87.01
2022-10-19T14:49:39.672Z,85.45
2022-10-19T14:52:07.071Z,86.99
2022-10-19T14:54:36.512Z,87.56
2022-10-19T14:57:06.922Z,88.49
2022-10-19T14:59:36.005Z,88.58
2022-10-19T15:02:05.556Z,88.78
2022-10-19T15:04:35.145Z,89.09
2022-10-19T15:07:05.372Z,87.98
2022-10-19T15:09:47.689Z,89.10
2022-10-19T15:12:17.857Z,88.64
2022-10-19T15:14:46.576Z,89.87
2022-10-19T15:17:22.675Z,89.77
2022-10-19T15:19:50.064Z,89.67
2022-10-19T15:22:19.979Z,89.74
2022-10-19T15:24:58.054Z,89.01
2022-10-19T15:27:30.131Z,89.01
2022-10-19T15:29:58.413Z,89.50
2022-10-19T15:32:28.126Z,89.31
2022-10-19T15:34:55.500Z,90.71
2022-10-19T15:39:57.285Z,90.14
2022-10-19T15:42:33.229Z,91.66
2022-10-19T15:45:00.981Z,91.78
2022-10-19T15:47:28.375Z,91.46
2022-10-19T15:49:58.037Z,92.08
2022-10-19T15:52:27.433Z,92.18
2022-10-19T15:54:55.817Z,92.34
2022-10-19T15:57:25.346Z,92.56
2022-10-19T15:59:52.690Z,92.97
2022-10-19T16:02:20.000Z,93.06
2022-10-19T16:04:47.453Z,93.61
2022-10-19T16:07:16.987Z,93.61
2022-10-19T16:09:48.621Z,93.67
2022-10-19T16:12:15.941Z,93.90
2022-10-19T16:14:43.265Z,93.76
2022-10-19T16:17:11.785Z,93.90
2022-10-19T16:19:39.131Z,93.73
2022-10-19T16:22:06.566Z,93.64
2022-10-19T16:24:33.951Z,93.66
2022-10-19T16:27:02.628Z,93.35
2022-10-19T16:29:30.027Z,93.57
2022-10-19T16:31:57.519Z,93.82
2022-10-19T16:34:24.853Z,93.85
2022-10-19T16:36:52.350Z,93.75
2022-10-19T16:39:19.792Z,93.79
2022-10-19T16:41:47.534Z,93.48
2022-10-19T16:59:25.563Z,67.86
2022-10-19T17:01:53.751Z,70.38
2022-10-19T17:04:21.925Z,71.42
2022-10-19T17:06:49.742Z,71.21
2022-10-19T17:12:05.820Z,70.52
2022-10-19T17:14:35.689Z,70.48
2022-10-19T17:17:03.269Z,70.84
2022-10-19T17:19:30.877Z,69.14
2022-10-19T17:21:59.053Z,69.48
2022-10-19T17:24:27.256Z,69.88
2022-10-19T17:26:55.083Z,69.38
2022-10-19T17:29:23.515Z,69.58
2022-10-19T17:31:52.570Z,68.91
2022-10-19T17:34:20.059Z,69.27
2022-10-19T17:36:48.026Z,69.18
2022-10-19T17:39:18.525Z,68.25
2022-10-19T17:41:46.404Z,67.96
2022-10-19T17:44:13.944Z,68.48
2022-10-19T17:46:41.941Z,67.79
2022-10-19T17:49:11.321Z,68.87
2022-10-19T17:51:39.242Z,68.31
2022-10-19T17:54:08.663Z,68.75
2022-10-19T17:56:37.650Z,68.88
2022-10-19T17:59:07.830Z,68.21
2022-10-19T18:01:36.183Z,67.88
2022-10-19T18:04:04.088Z,67.45
2022-10-19T18:06:34.949Z,67.41
2022-10-19T18:09:05.510Z,67.48
2022-10-19T18:11:36.897Z,67.04
2022-10-19T18:14:05.833Z,66.91
2022-10-19T18:16:35.782Z,66.97
2022-10-19T18:19:04.335Z,66.83
2022-10-19T18:21:35.613Z,67.06
2022-10-19T18:24:04.498Z,67.12
2022-10-19T18:26:34.564Z,67.18
2022-10-19T18:29:03.680Z,67.03
2022-10-19T18:31:33.341Z,66.71
2022-10-19T18:34:03.515Z,66.59
2022-10-19T18:36:33.142Z,66.44
2022-10-19T18:39:02.771Z,66.24
2022-10-19T18:41:30.689Z,66.66
2022-10-19T18:44:01.150Z,66.40
2022-10-19T18:46:28.851Z,66.13
2022-10-19T18:48:56.372Z,66.22
2022-10-19T18:51:24.786Z,66.19
2022-10-19T18:53:53.748Z,65.25
2022-10-19T18:56:23.202Z,65.45
2022-10-19T18:58:51.147Z,65.34
2022-10-19T19:01:22.786Z,65.38
2022-10-19T19:03:52.310Z,65.35
2022-10-19T19:06:21.951Z,65.51
2022-10-19T19:08:49.742Z,65.37
2022-10-19T19:11:21.359Z,65.22
2022-10-19T19:13:49.980Z,64.91
2022-10-19T19:16:17.531Z,65.43
2022-10-19T19:18:45.227Z,64.87
2022-10-19T19:21:15.817Z,65.60
2022-10-19T19:23:43.447Z,65.71
2022-10-19T19:26:12.745Z,65.30
2022-10-19T19:28:44.331Z,64.97
2022-10-19T19:31:15.776Z,64.83
2022-10-19T19:33:45.118Z,65.07
2022-10-19T19:36:14.235Z,64.68
2022-10-19T19:38:41.780Z,64.62
2022-10-19T19:41:12.088Z,64.46
2022-10-19T19:43:42.328Z,64.85
2022-10-19T19:46:12.447Z,64.75
2022-10-19T19:48:41.491Z,64.73
2022-10-19T19:51:09.362Z,64.53
2022-10-19T19:53:37.146Z,64.41
2022-10-19T19:56:04.753Z,64.13
2022-10-19T19:58:32.321Z,64.67
2022-10-19T20:01:01.141Z,64.77
2022-10-19T20:03:28.639Z,64.60
2022-10-19T20:05:56.201Z,64.84
2022-10-19T20:08:23.662Z,64.66
2022-10-19T20:10:51.170Z,64.64
2022-10-19T20:13:18.636Z,64.72
2022-10-19T20:15:46.134Z,64.76
2022-10-19T20:18:14.969Z,64.54
2022-10-19T20:20:42.435Z,64.68
2022-10-19T20:23:09.978Z,65.37
2022-10-19T20:25:38.031Z,64.90
2022-10-19T20:28:05.617Z,64.82
2022-10-19T20:30:33.245Z,64.62
2022-10-19T20:33:00.833Z,64.28
2022-10-19T20:35:29.643Z,64.72
2022-10-19T20:37:58.509Z,64.16
2022-10-19T20:40:26.012Z,65.01
2022-10-19T20:42:53.489Z,64.00
2022-10-19T20:45:21.069Z,64.61
2022-10-19T20:47:48.766Z,64.57
2022-10-19T20:50:19.234Z,64.37
2022-10-19T20:52:50.712Z,64.89
2022-10-19T20:55:20.229Z,64.92
2022-10-19T20:57:47.779Z,64.12
2022-10-19T21:00:16.147Z,64.49
2022-10-19T21:02:45.146Z,64.53
2022-10-19T21:05:13.134Z,64.73
2022-10-19T21:07:40.628Z,64.62
2022-10-19T21:10:10.160Z,64.42
2022-10-19T21:12:37.978Z,65.10
2022-10-19T21:15:06.165Z,64.83
2022-10-19T21:17:33.670Z,64.43
2022-10-19T21:20:01.147Z,64.24
2022-10-19T21:22:28.621Z,63.97
2022-10-19T21:24:56.086Z,64.63
2022-10-19T21:27:24.912Z,64.65
2022-10-19T21:29:52.366Z,64.82
2022-10-19T21:32:20.909Z,64.77
2022-10-19T21:34:48.389Z,65.32
2022-10-19T21:37:15.842Z,64.98
2022-10-19T21:39:43.310Z,64.68
2022-10-19T21:42:10.796Z,65.04
2022-10-19T21:44:39.615Z,64.40
2022-10-19T21:47:07.854Z,64.54
2022-10-19T21:49:35.323Z,64.28
2022-10-19T21:52:02.897Z,64.48
2022-10-19T21:54:30.410Z,64.69
2022-10-19T21:57:00.226Z,65.02
2022-10-19T21:59:27.848Z,64.34
